createdAt,value
2023-04-17T00:03:20.645Z,97123.63
2023-04-17T00:08:41.430Z,97124.91
2023-04-17T00:14:02.209Z,97123.13
2023-04-17T00:19:23.091Z,97117.13
2023-04-17T00:24:43.741Z,97118.59
2023-04-17T00:30:05.105Z,97121.75
2023-04-17T00:35:25.809Z,97130.47
2023-04-17T00:40:46.576Z,97132.66
2023-04-17T00:46:08.208Z,97129.19
2023-04-17T00:51:29.029Z,97129.56
2023-04-17T00:56:51.693Z,97128.09
2023-04-17T01:02:13.148Z,97125.44
2023-04-17T01:07:33.939Z,97116.22
2023-04-17T01:13:05.070Z,97118.00
2023-04-17T01:18:27.044Z,97116.59
2023-04-17T01:23:52.263Z,97117.75
2023-04-17T01:29:14.335Z,97111.25
2023-04-17T01:34:37.396Z,97117.31
2023-04-17T01:39:59.535Z,97120.91
2023-04-17T01:45:21.270Z,97120.44
2023-04-17T01:50:42.265Z,97118.44
2023-04-17T01:56:02.962Z,97126.78
2023-04-17T02:01:24.419Z,97124.13
2023-04-17T02:06:45.907Z,97123.00
2023-04-17T02:12:06.947Z,97136.06
2023-04-17T02:17:28.041Z,97140.31
2023-04-17T02:22:48.623Z,97138.72
2023-04-17T02:28:09.450Z,97143.78
2023-04-17T02:33:30.010Z,97140.25
2023-04-17T02:38:51.844Z,97143.25
2023-04-17T02:44:12.580Z,97141.03
2023-04-17T02:49:33.271Z,97141.97
2023-04-17T02:54:54.959Z,97145.41
2023-04-17T03:00:16.394Z,97146.81
2023-04-17T03:05:37.241Z,97151.09
2023-04-17T03:10:57.950Z,97146.19
2023-04-17T03:16:18.723Z,97141.41
2023-04-17T03:21:40.416Z,97145.56
2023-04-17T03:27:02.332Z,97149.31
2023-04-17T03:32:30.966Z,97153.97
2023-04-17T03:37:51.678Z,97150.56
2023-04-17T03:43:12.970Z,97161.00
2023-04-17T03:48:33.713Z,97164.81
2023-04-17T03:53:54.410Z,97164.31
2023-04-17T03:59:15.054Z,97170.75
2023-04-17T04:04:38.949Z,97173.03
2023-04-17T04:10:04.758Z,97179.06
2023-04-17T04:15:25.926Z,97181.13
2023-04-17T04:20:51.144Z,97180.91
2023-04-17T04:26:21.726Z,97184.72
2023-04-17T04:31:51.044Z,97183.78
2023-04-17T04:37:15.724Z,97181.81
2023-04-17T04:42:42.290Z,97187.09
2023-04-17T04:48:12.411Z,97185.63
2023-04-17T04:53:33.646Z,97183.25
2023-04-17T04:58:56.356Z,97184.50
2023-04-17T05:04:17.291Z,97188.25
2023-04-17T05:09:38.473Z,97188.38
2023-04-17T05:15:00.907Z,97187.56
2023-04-17T05:20:22.547Z,97194.50
2023-04-17T05:25:48.988Z,97193.78
2023-04-17T05:31:10.313Z,97201.38
2023-04-17T05:36:35.439Z,97200.34
2023-04-17T05:41:58.928Z,97200.16
2023-04-17T05:47:19.728Z,97207.09
2023-04-17T05:52:40.673Z,97209.97
2023-04-17T05:58:20.403Z,97207.97
2023-04-17T06:03:44.815Z,97207.13
2023-04-17T06:09:11.979Z,97211.38
2023-04-17T06:14:33.351Z,97215.84
2023-04-17T06:19:58.396Z,97219.34
2023-04-17T06:25:20.637Z,97228.66
2023-04-17T06:30:41.435Z,97229.38
2023-04-17T06:36:03.223Z,97234.72
2023-04-17T06:41:32.448Z,97238.53
2023-04-17T06:46:54.860Z,97242.09
2023-04-17T06:52:15.584Z,97245.34
2023-04-17T06:57:36.879Z,97243.81
2023-04-17T07:02:57.770Z,97253.03
2023-04-17T07:08:22.382Z,97254.56
2023-04-17T07:13:43.370Z,97259.81
2023-04-17T07:19:04.144Z,97259.94
2023-04-17T07:24:24.786Z,97270.13
2023-04-17T07:29:47.640Z,97269.53
2023-04-17T07:35:08.676Z,97269.44
2023-04-17T07:40:30.381Z,97271.00
2023-04-17T07:45:51.098Z,97278.25
2023-04-17T07:51:11.724Z,97276.47
2023-04-17T07:56:34.667Z,97283.13
2023-04-17T08:01:55.442Z,97286.22
2023-04-17T08:07:18.316Z,97289.41
2023-04-17T08:12:39.698Z,97292.94
2023-04-17T08:18:00.727Z,97293.22
2023-04-17T08:23:21.620Z,97296.06
2023-04-17T08:28:42.413Z,97295.31
2023-04-17T08:34:13.628Z,97291.50
2023-04-17T08:39:35.785Z,97289.69
2023-04-17T08:45:01.125Z,97289.81
2023-04-17T08:50:22.287Z,97284.59
2023-04-17T08:55:44.307Z,97284.03
2023-04-17T09:01:10.753Z,97291.31
2023-04-17T09:06:50.044Z,97291.09
2023-04-17T09:12:11.251Z,97295.50
2023-04-17T09:17:35.040Z,97291.31
2023-04-17T09:23:01.344Z,97288.53
2023-04-17T09:28:22.215Z,97289.94
2023-04-17T09:34:04.470Z,97287.38
2023-04-17T09:39:25.649Z,97290.69
2023-04-17T09:44:47.156Z,97291.56
2023-04-17T09:50:09.238Z,97290.19
2023-04-17T09:55:31.477Z,97294.50
2023-04-17T10:00:52.594Z,97293.31
2023-04-17T10:06:14.121Z,97286.31
2023-04-17T10:11:37.967Z,97289.38
2023-04-17T10:16:58.992Z,97277.34
2023-04-17T10:22:19.834Z,97271.00
2023-04-17T10:27:40.550Z,97249.84
2023-04-17T10:33:13.426Z,97255.63
2023-04-17T10:38:36.207Z,97256.59
2023-04-17T10:43:57.484Z,97250.75
2023-04-17T10:49:18.250Z,97249.16
2023-04-17T10:55:18.049Z,97246.41
2023-04-17T11:00:50.867Z,97247.47
2023-04-17T11:06:13.366Z,97253.53
2023-04-17T11:11:44.041Z,97243.53
2023-04-17T11:17:05.683Z,97250.22
2023-04-17T11:22:28.358Z,97245.00
2023-04-17T11:27:55.432Z,97240.88
2023-04-17T11:33:16.622Z,97235.22
2023-04-17T11:38:46.813Z,97239.88
2023-04-17T11:44:13.066Z,97237.56
2023-04-17T11:49:38.788Z,97240.88
2023-04-17T11:54:59.497Z,97240.34
2023-04-17T12:00:26.107Z,97236.09
2023-04-17T12:05:59.523Z,97235.94
2023-04-17T12:11:26.328Z,97232.75
2023-04-17T12:16:51.821Z,97238.50
2023-04-17T12:22:12.656Z,97239.00
2023-04-17T12:27:36.674Z,97238.19
2023-04-17T12:32:58.851Z,97233.69
2023-04-17T12:38:19.581Z,97228.44
2023-04-17T12:43:40.374Z,97233.25
2023-04-17T12:49:01.051Z,97218.22
2023-04-17T12:54:21.725Z,97212.16
2023-04-17T12:59:42.448Z,97205.81
2023-04-17T13:05:05.978Z,97207.31
2023-04-17T13:10:27.076Z,97207.59
2023-04-17T13:15:48.809Z,97212.56
2023-04-17T13:21:09.835Z,97216.41
2023-04-17T13:26:30.716Z,97217.44
2023-04-17T13:31:51.648Z,97212.75
2023-04-17T13:37:14.594Z,97209.47
2023-04-17T13:42:35.738Z,97212.22
2023-04-17T13:47:56.464Z,97209.03
2023-04-17T13:53:17.289Z,97203.09
2023-04-17T13:58:38.163Z,97193.69
2023-04-17T14:04:02.184Z,97194.44
2023-04-17T14:09:23.004Z,97205.22
2023-04-17T14:14:43.768Z,97235.06
2023-04-17T14:20:05.325Z,97240.16
2023-04-17T14:25:26.145Z,97242.56
2023-04-17T14:30:47.704Z,97256.84
2023-04-17T14:36:08.912Z,97259.88
2023-04-17T14:41:34.336Z,97266.03
2023-04-17T14:46:57.076Z,97274.81
2023-04-17T14:52:17.919Z,97273.44
2023-04-17T14:57:39.460Z,97264.84
2023-04-17T15:03:00.566Z,97270.91
2023-04-17T15:08:21.659Z,97273.75
2023-04-17T15:13:42.487Z,97272.41
2023-04-17T15:19:03.453Z,97271.19
2023-04-17T15:24:24.150Z,97277.81
2023-04-17T15:29:46.067Z,97277.94
2023-04-17T15:35:07.648Z,97277.81
2023-04-17T15:40:28.578Z,97279.84
2023-04-17T15:45:49.751Z,97279.38
2023-04-17T15:51:10.631Z,97268.25
2023-04-17T15:56:31.786Z,97271.56
2023-04-17T16:01:53.550Z,97272.91
2023-04-17T16:07:16.580Z,97276.38
2023-04-17T16:12:41.430Z,97275.31
2023-04-17T16:18:02.418Z,97285.94
2023-04-17T16:23:23.064Z,97281.34
2023-04-17T16:28:45.798Z,97288.72
2023-04-17T16:34:06.459Z,97287.31
2023-04-17T16:39:27.460Z,97293.81
2023-04-17T16:44:48.467Z,97294.63
2023-04-17T16:50:11.672Z,97302.31
2023-04-17T16:55:32.391Z,97302.31
2023-04-17T17:00:53.154Z,97300.88
2023-04-17T17:06:13.838Z,97313.06
2023-04-17T17:11:34.454Z,97316.25
2023-04-17T17:16:55.278Z,97321.19
2023-04-17T17:22:16.047Z,97317.78
2023-04-17T17:27:37.120Z,97325.00
2023-04-17T17:32:57.851Z,97327.78
2023-04-17T17:38:18.498Z,97327.50
2023-04-17T17:43:39.864Z,97334.09
2023-04-17T17:49:00.608Z,97339.50
2023-04-17T17:54:21.386Z,97341.00
2023-04-17T17:59:42.433Z,97346.84
2023-04-17T18:05:03.353Z,97348.38
2023-04-17T18:10:23.997Z,97360.03
2023-04-17T18:15:44.920Z,97360.03
2023-04-17T18:21:07.195Z,97355.88
2023-04-17T18:26:27.931Z,97360.91
2023-04-17T18:31:51.161Z,97369.34
2023-04-17T18:37:12.136Z,97369.69
2023-04-17T18:42:32.793Z,97377.69
2023-04-17T18:47:53.644Z,97370.09
2023-04-17T18:53:14.624Z,97384.88
2023-04-17T18:58:37.667Z,97396.41
2023-04-17T19:03:58.585Z,97389.00
2023-04-17T19:09:19.631Z,97398.06
2023-04-17T19:14:41.212Z,97398.66
2023-04-17T19:20:02.139Z,97401.38
2023-04-17T19:25:22.678Z,97399.22
2023-04-17T19:30:43.477Z,97398.28
2023-04-17T19:36:04.367Z,97402.31
2023-04-17T19:41:26.338Z,97400.88
2023-04-17T19:46:47.473Z,97400.06
2023-04-17T19:52:08.413Z,97398.91
2023-04-17T19:57:28.973Z,97401.50
2023-04-17T20:02:49.921Z,97412.50
2023-04-17T20:08:10.917Z,97404.72
2023-04-17T20:13:31.964Z,97409.41
2023-04-17T20:18:53.105Z,97404.22
2023-04-17T20:24:15.787Z,97397.13
2023-04-17T20:29:36.576Z,97400.91
2023-04-17T20:34:57.475Z,97408.78
2023-04-17T20:40:18.587Z,97402.84
2023-04-17T20:45:39.788Z,97398.50
2023-04-17T20:51:05.969Z,97395.91
2023-04-17T20:56:26.719Z,97397.97
2023-04-17T21:01:47.505Z,97400.38
2023-04-17T21:07:08.250Z,97402.75
2023-04-17T21:12:29.033Z,97402.03
2023-04-17T21:17:49.696Z,97398.09
2023-04-17T21:23:10.982Z,97401.22
2023-04-17T21:28:31.971Z,97395.78
2023-04-17T21:33:52.610Z,97392.78
2023-04-17T21:39:13.397Z,97393.13
2023-04-17T21:44:34.022Z,97394.56
2023-04-17T21:49:54.684Z,97392.72
2023-04-17T21:55:15.670Z,97393.13
2023-04-17T22:00:36.589Z,97381.38
2023-04-17T22:05:57.508Z,97394.03
2023-04-17T22:11:18.379Z,97393.22
2023-04-17T22:16:39.481Z,97385.97
2023-04-17T22:22:56.775Z,97383.25
2023-04-17T22:29:32.380Z,97387.81
2023-04-17T22:36:08.465Z,97376.41
2023-04-17T22:42:44.118Z,97377.53
2023-04-17T22:48:24.673Z,97375.38
2023-04-17T22:53:46.639Z,97379.84
2023-04-17T22:59:07.515Z,97386.38
2023-04-17T23:04:28.158Z,97383.88
2023-04-17T23:09:48.764Z,97375.56
2023-04-17T23:15:09.952Z,97378.38
2023-04-17T23:20:30.739Z,97371.09
2023-04-17T23:25:52.142Z,97364.47
2023-04-17T23:31:12.792Z,97367.06
2023-04-17T23:36:33.290Z,97373.47
2023-04-17T23:41:54.839Z,97359.69
2023-04-17T23:47:16.118Z,97363.41
2023-04-17T23:52:37.077Z,97361.56
2023-04-17T23:57:57.994Z,97354.63
